Time;durP1;ratioP1;P1;durP2;ratioP2;P2;SDS_P1;SDS_P2;PMS_P1;PMS_P2;Temp;Humidity;BMP_temperature;BMP_pressure;BME280_temperature;BME280_humidity;BME280_pressure;Samples;Min_cycle;Max_cycle;Signal;HPM_P1;HPM_P2
2023/10/29 00:00:43;;;;;;;35.40;33.58;;;;;;;;;;5064735;28;20067;-68
2023/10/29 00:03:09;;;;;;;36.53;34.50;;;;;;;;;;5064061;28;20029;-68
2023/10/29 00:05:35;;;;;;;37.65;35.70;;;;;;;;;;5064076;28;20033;-68
2023/10/29 00:08:00;;;;;;;34.90;33.10;;;;;;;;;;5066942;28;20482;-68
2023/10/29 00:10:28;;;;;;;34.83;33.05;;;;;;;;;;5065762;28;20042;-68
2023/10/29 00:12:53;;;;;;;36.25;34.35;;;;;;;;;;5062880;28;20114;-68
2023/10/29 00:15:19;;;;;;;34.33;32.50;;;;;;;;;;5067114;28;20655;-68
2023/10/29 00:17:44;;;;;;;33.72;32.00;;;;;;;;;;5064162;28;20032;-68
2023/10/29 00:20:12;;;;;;;35.97;34.13;;;;;;;;;;5065405;28;20032;-68
2023/10/29 00:22:38;;;;;;;34.28;32.50;;;;;;;;;;5062155;28;20039;-68
2023/10/29 00:25:03;;;;;;;35.78;33.95;;;;;;;;;;5063162;28;20045;-68
2023/10/29 00:27:29;;;;;;;35.05;32.95;;;;;;;;;;5066984;28;20119;-68
2023/10/29 00:29:54;;;;;;;36.45;34.58;;;;;;;;;;5064554;28;20119;-68
2023/10/29 00:32:20;;;;;;;36.85;34.95;;;;;;;;;;5069130;28;20037;-69
2023/10/29 00:34:46;;;;;;;33.88;31.98;;;;;;;;;;5063436;28;20120;-69
2023/10/29 00:37:12;;;;;;;34.28;32.53;;;;;;;;;;5070853;28;20039;-69
2023/10/29 00:39:38;;;;;;;33.13;31.42;;;;;;;;;;5061714;28;20126;-69
2023/10/29 00:42:03;;;;;;;36.08;34.17;;;;;;;;;;5065202;28;20039;-68
2023/10/29 00:44:28;;;;;;;35.88;33.65;;;;;;;;;;5066311;28;20093;-69
2023/10/29 00:46:54;;;;;;;34.60;32.80;;;;;;;;;;5064879;28;20033;-69
2023/10/29 00:49:19;;;;;;;33.70;31.95;;;;;;;;;;5066673;28;20032;-68
2023/10/29 00:51:45;;;;;;;30.92;29.27;;;;;;;;;;5065953;28;20052;-69
2023/10/29 00:54:10;;;;;;;31.60;29.85;;;;;;;;;;5063004;28;20033;-69
2023/10/29 00:56:36;;;;;;;33.20;31.48;;;;;;;;;;5062828;28;20059;-69
2023/10/29 00:59:02;;;;;;;33.22;31.52;;;;;;;;;;5063959;28;20119;-69
2023/10/29 01:01:27;;;;;;;31.75;30.05;;;;;;;;;;5062166;28;20516;-69
2023/10/29 01:03:53;;;;;;;32.78;31.08;;;;;;;;;;5064775;28;20718;-69
2023/10/29 01:06:18;;;;;;;31.23;29.60;;;;;;;;;;5064188;28;20032;-69
2023/10/29 01:08:43;;;;;;;29.63;28.10;;;;;;;;;;5064447;28;20409;-68
2023/10/29 01:11:09;;;;;;;28.48;26.98;;;;;;;;;;5062095;28;20040;-68
2023/10/29 01:13:34;;;;;;;30.75;29.05;;;;;;;;;;5061555;28;20043;-69
2023/10/29 01:16:04;;;;;;;32.25;30.55;;;;;;;;;;5068294;28;20039;-68
2023/10/29 01:18:33;;;;;;;31.70;30.05;;;;;;;;;;5062513;28;20685;-68
2023/10/29 01:20:59;;;;;;;29.83;28.25;;;;;;;;;;5062532;28;20421;-68
2023/10/29 01:23:25;;;;;;;29.48;27.88;;;;;;;;;;5062387;28;20040;-68
2023/10/29 01:25:50;;;;;;;29.23;27.73;;;;;;;;;;5061627;28;20037;-68
2023/10/29 01:28:16;;;;;;;27.25;25.75;;;;;;;;;;5061537;28;20090;-68
2023/10/29 01:30:41;;;;;;;27.30;25.90;;;;;;;;;;5062306;28;20481;-68
2023/10/29 01:33:07;;;;;;;26.58;25.17;;;;;;;;;;5061947;28;21256;-68
2023/10/29 01:35:32;;;;;;;28.65;27.15;;;;;;;;;;5062853;28;20048;-69
2023/10/29 01:37:57;;;;;;;30.35;28.75;;;;;;;;;;5063869;28;20060;-69
2023/10/29 01:40:23;;;;;;;28.60;27.10;;;;;;;;;;5064175;28;20434;-69
2023/10/29 01:42:49;;;;;;;28.48;26.98;;;;;;;;;;5061271;28;20053;-68
2023/10/29 01:45:16;;;;;;;29.75;28.15;;;;;;;;;;5062649;28;20067;-68
2023/10/29 01:47:42;;;;;;;26.33;24.92;;;;;;;;;;5060813;28;20060;-68
2023/10/29 01:50:08;;;;;;;25.13;23.83;;;;;;;;;;5063925;28;20067;-68
2023/10/29 01:52:37;;;;;;;23.90;22.60;;;;;;;;;;5061333;28;20116;-69
2023/10/29 01:55:02;;;;;;;24.92;23.42;;;;;;;;;;5066181;28;20086;-68
2023/10/29 01:57:29;;;;;;;24.13;22.83;;;;;;;;;;5062245;28;20034;-68
2023/10/29 01:59:54;;;;;;;23.65;22.38;;;;;;;;;;5061272;28;20098;-68
2023/10/29 02:02:19;;;;;;;25.58;24.17;;;;;;;;;;5060347;28;20037;-68
2023/10/29 02:04:45;;;;;;;26.63;25.23;;;;;;;;;;5059295;28;20025;-68
2023/10/29 02:07:10;;;;;;;25.92;24.55;;;;;;;;;;5067637;28;20168;-68
2023/10/29 02:09:35;;;;;;;29.08;27.58;;;;;;;;;;5062321;28;20044;-68
2023/10/29 02:12:01;;;;;;;29.75;28.15;;;;;;;;;;5063872;28;20043;-68
2023/10/29 02:14:28;;;;;;;26.02;24.63;;;;;;;;;;5063402;28;20039;-68
2023/10/29 02:16:54;;;;;;;24.17;22.88;;;;;;;;;;5061329;28;20025;-68
2023/10/29 02:19:19;;;;;;;26.08;24.67;;;;;;;;;;5064020;28;20067;-68
2023/10/29 02:21:44;;;;;;;25.25;23.95;;;;;;;;;;5059565;28;20063;-68
2023/10/29 02:24:10;;;;;;;23.15;21.95;;;;;;;;;;5060393;28;20380;-69
2023/10/29 02:26:35;;;;;;;25.42;24.08;;;;;;;;;;5060006;28;20570;-68
2023/10/29 02:29:00;;;;;;;24.00;22.70;;;;;;;;;;5060762;28;20048;-68
2023/10/29 02:31:26;;;;;;;26.67;25.20;;;;;;;;;;5059728;28;20024;-68
2023/10/29 02:33:51;;;;;;;27.75;26.27;;;;;;;;;;5059897;28;20031;-68
2023/10/29 02:36:17;;;;;;;28.10;26.60;;;;;;;;;;5059096;28;20059;-68
2023/10/29 02:38:45;;;;;;;29.27;27.77;;;;;;;;;;5062571;28;20040;-68
2023/10/29 02:41:10;;;;;;;28.55;27.05;;;;;;;;;;5056148;28;20525;-68
2023/10/29 02:43:40;;;;;;;29.20;27.63;;;;;;;;;;5064080;28;20139;-68
2023/10/29 02:46:05;;;;;;;25.40;24.05;;;;;;;;;;5060297;28;20049;-68
2023/10/29 02:48:30;;;;;;;27.25;25.85;;;;;;;;;;5058899;28;20037;-69
2023/10/29 02:50:56;;;;;;;28.73;27.23;;;;;;;;;;5059239;28;20036;-68
2023/10/29 02:53:22;;;;;;;29.10;27.60;;;;;;;;;;5058780;28;20351;-68
2023/10/29 02:55:47;;;;;;;28.38;26.88;;;;;;;;;;5061690;28;20040;-68
2023/10/29 02:58:12;;;;;;;30.48;28.88;;;;;;;;;;5060596;28;20055;-68
2023/10/29 03:00:38;;;;;;;28.13;26.63;;;;;;;;;;5061033;28;20044;-68
2023/10/29 03:03:04;;;;;;;27.38;25.98;;;;;;;;;;5060252;28;20036;-68
2023/10/29 03:05:29;;;;;;;23.48;22.15;;;;;;;;;;5061422;28;20032;-68
2023/10/29 03:07:55;;;;;;;22.60;21.40;;;;;;;;;;5059032;28;20036;-68
2023/10/29 03:10:20;;;;;;;22.10;20.90;;;;;;;;;;5061342;28;20044;-68
2023/10/29 03:12:45;;;;;;;23.88;22.58;;;;;;;;;;5060692;28;20458;-68
2023/10/29 03:15:11;;;;;;;22.80;21.60;;;;;;;;;;5061730;28;20112;-68
2023/10/29 03:17:36;;;;;;;21.30;20.17;;;;;;;;;;5060471;28;20044;-68
2023/10/29 03:20:02;;;;;;;24.02;22.73;;;;;;;;;;5061771;28;20040;-68
2023/10/29 03:22:28;;;;;;;23.08;21.88;;;;;;;;;;5057964;28;20041;-68
2023/10/29 03:24:53;;;;;;;23.73;22.42;;;;;;;;;;5060280;28;20051;-70
2023/10/29 03:27:19;;;;;;;24.77;23.48;;;;;;;;;;5064704;28;20143;-68
2023/10/29 03:29:44;;;;;;;24.05;22.58;;;;;;;;;;5063218;28;20086;-69
2023/10/29 03:32:10;;;;;;;26.95;25.50;;;;;;;;;;5063780;28;20097;-69
2023/10/29 03:34:35;;;;;;;28.65;27.15;;;;;;;;;;5063364;28;20033;-68
2023/10/29 03:37:01;;;;;;;29.58;28.05;;;;;;;;;;5065460;28;20496;-68
2023/10/29 03:39:28;;;;;;;26.55;25.15;;;;;;;;;;5061513;28;20090;-69
2023/10/29 03:41:53;;;;;;;28.77;27.27;;;;;;;;;;5063882;28;20040;-68
2023/10/29 03:44:19;;;;;;;26.88;25.38;;;;;;;;;;5065629;28;20394;-68
2023/10/29 03:46:49;;;;;;;25.75;24.35;;;;;;;;;;5061568;28;20578;-68
2023/10/29 03:49:16;;;;;;;26.58;25.08;;;;;;;;;;5061634;28;20041;-68
2023/10/29 03:51:44;;;;;;;27.05;25.55;;;;;;;;;;5066056;28;20041;-69
2023/10/29 03:54:09;;;;;;;26.60;24.98;;;;;;;;;;5067451;28;20047;-68
2023/10/29 03:56:34;;;;;;;25.10;23.80;;;;;;;;;;5064271;28;20029;-68
2023/10/29 03:59:00;;;;;;;24.67;23.38;;;;;;;;;;5063308;28;20036;-68
2023/10/29 04:01:26;;;;;;;23.35;22.15;;;;;;;;;;5061943;28;20043;-68
2023/10/29 04:03:52;;;;;;;24.90;23.42;;;;;;;;;;5063754;28;20043;-65
2023/10/29 04:06:17;;;;;;;24.48;23.17;;;;;;;;;;5064476;28;20037;-68
2023/10/29 04:08:42;;;;;;;25.08;23.67;;;;;;;;;;5062294;28;20028;-68
2023/10/29 04:11:08;;;;;;;24.77;23.42;;;;;;;;;;5065660;28;20047;-68
2023/10/29 04:13:33;;;;;;;23.67;22.38;;;;;;;;;;5066849;28;20155;-65
2023/10/29 04:15:59;;;;;;;25.08;23.77;;;;;;;;;;5060670;28;20029;-68
2023/10/29 04:18:27;;;;;;;24.00;22.70;;;;;;;;;;5069268;28;20068;-65
2023/10/29 04:20:54;;;;;;;25.85;24.45;;;;;;;;;;5063700;28;20059;-64
2023/10/29 04:23:19;;;;;;;25.75;24.40;;;;;;;;;;5062633;28;20059;-68
2023/10/29 04:25:44;;;;;;;26.08;24.67;;;;;;;;;;5063279;28;20489;-68
2023/10/29 04:28:10;;;;;;;27.42;25.95;;;;;;;;;;5059730;28;20036;-68
2023/10/29 04:30:36;;;;;;;31.92;30.13;;;;;;;;;;5063622;28;20024;-65
2023/10/29 04:33:02;;;;;;;29.42;27.92;;;;;;;;;;5063296;28;20065;-67
2023/10/29 04:35:28;;;;;;;29.13;27.55;;;;;;;;;;5064042;28;20745;-65
2023/10/29 04:37:53;;;;;;;31.02;29.42;;;;;;;;;;5062562;28;20044;-65
2023/10/29 04:40:18;;;;;;;36.53;34.05;;;;;;;;;;5061822;28;20036;-68
2023/10/29 04:42:44;;;;;;;36.53;34.63;;;;;;;;;;5063185;28;20485;-65
2023/10/29 04:45:11;;;;;;;36.67;34.78;;;;;;;;;;5064537;28;20491;-65
2023/10/29 04:47:36;;;;;;;40.72;38.63;;;;;;;;;;5061573;28;20532;-68
2023/10/29 04:50:02;;;;;;;38.30;36.35;;;;;;;;;;5062425;28;20037;-67
2023/10/29 04:52:27;;;;;;;40.33;38.28;;;;;;;;;;5062748;28;20040;-67
2023/10/29 04:54:53;;;;;;;41.53;39.28;;;;;;;;;;5063654;28;20024;-66
2023/10/29 04:57:20;;;;;;;43.55;41.25;;;;;;;;;;5062041;28;20032;-67
2023/10/29 04:59:46;;;;;;;40.75;38.45;;;;;;;;;;5065797;28;20091;-68
2023/10/29 05:02:11;;;;;;;36.03;34.17;;;;;;;;;;5060699;28;20133;-65
2023/10/29 05:04:36;;;;;;;37.58;35.65;;;;;;;;;;5065751;28;20048;-65
2023/10/29 05:07:02;;;;;;;30.30;28.70;;;;;;;;;;5061988;28;20046;-65
2023/10/29 05:09:27;;;;;;;30.33;28.73;;;;;;;;;;5061607;28;20024;-64
2023/10/29 05:11:52;;;;;;;30.30;28.70;;;;;;;;;;5063082;28;20503;-63
2023/10/29 05:14:18;;;;;;;29.58;27.98;;;;;;;;;;5061042;28;20040;-63
2023/10/29 05:16:43;;;;;;;27.20;25.73;;;;;;;;;;5063097;28;20370;-63
2023/10/29 05:19:09;;;;;;;28.20;26.70;;;;;;;;;;5061567;28;20088;-65
2023/10/29 05:21:34;;;;;;;29.30;27.70;;;;;;;;;;5062012;28;20545;-65
2023/10/29 05:24:00;;;;;;;30.70;29.10;;;;;;;;;;5062150;28;20036;-67
2023/10/29 05:26:25;;;;;;;30.88;29.27;;;;;;;;;;5062889;28;20111;-64
2023/10/29 05:28:51;;;;;;;28.60;27.08;;;;;;;;;;5063648;28;20024;-65
2023/10/29 05:31:16;;;;;;;29.58;28.05;;;;;;;;;;5060088;28;20704;-65
2023/10/29 05:33:41;;;;;;;29.55;27.95;;;;;;;;;;5062144;28;20078;-65
2023/10/29 05:36:08;;;;;;;30.20;28.60;;;;;;;;;;5061413;28;20026;-66
2023/10/29 05:38:35;;;;;;;30.88;29.27;;;;;;;;;;5061824;28;20090;-68
2023/10/29 05:41:01;;;;;;;37.80;35.83;;;;;;;;;;5061594;28;20056;-67
2023/10/29 05:43:26;;;;;;;34.88;33.08;;;;;;;;;;5061277;28;20110;-67
2023/10/29 05:45:51;;;;;;;35.58;33.75;;;;;;;;;;5061320;28;20033;-67
2023/10/29 05:48:17;;;;;;;36.08;34.22;;;;;;;;;;5058049;28;20028;-64
2023/10/29 05:50:42;;;;;;;34.20;32.40;;;;;;;;;;5061065;28;20119;-66
2023/10/29 05:53:07;;;;;;;33.88;32.10;;;;;;;;;;5061149;28;20097;-67
2023/10/29 05:55:33;;;;;;;36.67;34.78;;;;;;;;;;5066501;28;20025;-67
2023/10/29 05:57:58;;;;;;;35.95;34.10;;;;;;;;;;5061005;28;20039;-65
2023/10/29 06:00:24;;;;;;;33.10;31.40;;;;;;;;;;5060625;28;20064;-65
2023/10/29 06:02:49;;;;;;;30.63;29.02;;;;;;;;;;5065466;28;20132;-66
2023/10/29 06:05:15;;;;;;;31.33;29.70;;;;;;;;;;5065600;28;20123;-65
2023/10/29 06:07:43;;;;;;;34.42;32.63;;;;;;;;;;5064233;28;20040;-65
2023/10/29 06:10:13;;;;;;;34.35;32.58;;;;;;;;;;5061332;28;20104;-65
2023/10/29 06:12:39;;;;;;;33.35;31.63;;;;;;;;;;5064106;28;20770;-65
2023/10/29 06:15:07;;;;;;;32.72;30.92;;;;;;;;;;5059580;28;20025;-64
2023/10/29 06:17:33;;;;;;;34.85;33.05;;;;;;;;;;5058963;28;20465;-64
2023/10/29 06:19:59;;;;;;;35.05;33.25;;;;;;;;;;5063544;28;20087;-64
2023/10/29 06:22:24;;;;;;;33.83;32.03;;;;;;;;;;5059206;28;20059;-64
2023/10/29 06:24:50;;;;;;;33.03;31.33;;;;;;;;;;5065754;28;20512;-65
2023/10/29 06:27:16;;;;;;;33.13;31.42;;;;;;;;;;5062204;28;20036;-64
2023/10/29 06:29:41;;;;;;;31.05;29.45;;;;;;;;;;5061239;28;20045;-64
2023/10/29 06:32:06;;;;;;;32.60;30.90;;;;;;;;;;5059579;28;20028;-64
2023/10/29 06:34:32;;;;;;;31.02;29.40;;;;;;;;;;5060814;28;20028;-64
2023/10/29 06:36:57;;;;;;;30.83;29.23;;;;;;;;;;5060264;28;20036;-64
2023/10/29 06:39:23;;;;;;;33.10;31.38;;;;;;;;;;5062193;28;20039;-65
2023/10/29 06:41:48;;;;;;;30.67;29.05;;;;;;;;;;5064798;28;20043;-65
2023/10/29 06:44:13;;;;;;;31.88;30.23;;;;;;;;;;5061458;28;20470;-65
2023/10/29 06:46:39;;;;;;;32.08;30.40;;;;;;;;;;5055356;28;20182;-64
2023/10/29 06:49:04;;;;;;;33.42;31.55;;;;;;;;;;5058720;28;20127;-65
2023/10/29 06:51:30;;;;;;;35.38;33.53;;;;;;;;;;5061876;28;20056;-66
2023/10/29 06:53:55;;;;;;;35.15;33.35;;;;;;;;;;5060105;28;20028;-65
2023/10/29 06:56:20;;;;;;;40.20;38.15;;;;;;;;;;5061080;28;20420;-65
2023/10/29 06:58:46;;;;;;;38.30;36.35;;;;;;;;;;5062509;28;20077;-66
2023/10/29 07:01:11;;;;;;;45.45;43.15;;;;;;;;;;5058235;28;20075;-64
2023/10/29 07:03:38;;;;;;;38.80;36.67;;;;;;;;;;5061347;28;20123;-65
2023/10/29 07:06:11;;;;;;;37.45;35.45;;;;;;;;;;5056377;28;20061;-66
2023/10/29 07:08:37;;;;;;;40.88;38.80;;;;;;;;;;5061454;28;20416;-66
2023/10/29 07:11:04;;;;;;;41.40;39.25;;;;;;;;;;5060303;28;20089;-66
2023/10/29 07:13:30;;;;;;;54.40;51.65;;;;;;;;;;5062868;28;20079;-64
2023/10/29 07:15:58;;;;;;;54.83;52.08;;;;;;;;;;5060546;28;20054;-65
2023/10/29 07:18:23;;;;;;;56.88;54.03;;;;;;;;;;5059414;28;20044;-65
2023/10/29 07:20:52;;;;;;;61.28;58.20;;;;;;;;;;5061491;28;20040;-65
2023/10/29 07:23:19;;;;;;;66.18;62.88;;;;;;;;;;5056131;28;20123;-66
2023/10/29 07:25:45;;;;;;;65.05;61.80;;;;;;;;;;5066278;28;20484;-64
2023/10/29 07:28:10;;;;;;;58.42;55.47;;;;;;;;;;5055094;28;20124;-64
2023/10/29 07:30:36;;;;;;;53.65;50.92;;;;;;;;;;5063423;28;20029;-66
2023/10/29 07:33:01;;;;;;;50.38;47.80;;;;;;;;;;5058900;28;20363;-64
2023/10/29 07:35:26;;;;;;;48.97;46.50;;;;;;;;;;5060137;28;21245;-64
2023/10/29 07:37:52;;;;;;;50.35;47.80;;;;;;;;;;5057777;28;20528;-64
2023/10/29 07:40:17;;;;;;;46.22;43.85;;;;;;;;;;5064146;28;20037;-63
2023/10/29 07:42:42;;;;;;;51.78;49.17;;;;;;;;;;5058261;28;20036;-63
2023/10/29 07:45:08;;;;;;;49.58;47.03;;;;;;;;;;5059763;28;20032;-64
2023/10/29 07:47:33;;;;;;;49.60;46.92;;;;;;;;;;5061570;28;20094;-66
2023/10/29 07:49:59;;;;;;;52.60;49.65;;;;;;;;;;5061004;28;20036;-66
2023/10/29 07:52:24;;;;;;;52.45;49.80;;;;;;;;;;5055848;28;20028;-63
2023/10/29 07:54:50;;;;;;;52.58;49.92;;;;;;;;;;5060300;28;20037;-62
2023/10/29 07:57:15;;;;;;;53.65;50.95;;;;;;;;;;5058794;28;20109;-63
2023/10/29 07:59:40;;;;;;;54.85;52.10;;;;;;;;;;5058750;28;20525;-65
2023/10/29 08:02:06;;;;;;;53.28;50.58;;;;;;;;;;5054932;28;20448;-63
2023/10/29 08:04:31;;;;;;;53.20;50.53;;;;;;;;;;5060858;28;20032;-62
2023/10/29 08:06:56;;;;;;;55.30;52.53;;;;;;;;;;5060392;28;20044;-63
2023/10/29 08:09:22;;;;;;;50.92;48.35;;;;;;;;;;5059012;28;20041;-62
2023/10/29 08:11:49;;;;;;;52.85;50.17;;;;;;;;;;5060608;28;20110;-66
2023/10/29 08:14:14;;;;;;;51.10;48.38;;;;;;;;;;5066222;28;20090;-68
2023/10/29 08:16:41;;;;;;;49.70;47.17;;;;;;;;;;5060861;28;20606;-64
2023/10/29 08:19:07;;;;;;;46.00;43.67;;;;;;;;;;5065951;28;20112;-66
2023/10/29 08:21:33;;;;;;;47.10;44.70;;;;;;;;;;5062101;28;20425;-67
2023/10/29 08:23:58;;;;;;;52.60;49.95;;;;;;;;;;5062770;28;20032;-65
2023/10/29 08:26:26;;;;;;;53.67;50.97;;;;;;;;;;5063221;28;20391;-65
2023/10/29 08:28:51;;;;;;;57.25;54.38;;;;;;;;;;5060574;28;20033;-63
2023/10/29 08:31:17;;;;;;;56.50;53.65;;;;;;;;;;5062722;28;20052;-63
2023/10/29 08:33:42;;;;;;;57.88;54.97;;;;;;;;;;5060509;28;20048;-64
2023/10/29 08:36:08;;;;;;;48.03;45.58;;;;;;;;;;5061532;28;20682;-65
2023/10/29 08:38:33;;;;;;;45.22;42.92;;;;;;;;;;5060296;28;20430;-65
2023/10/29 08:40:59;;;;;;;44.33;42.08;;;;;;;;;;5061796;28;20032;-65
2023/10/29 08:43:24;;;;;;;45.58;43.28;;;;;;;;;;5059060;28;20466;-65
2023/10/29 08:45:49;;;;;;;44.08;41.85;;;;;;;;;;5062288;28;20384;-66
2023/10/29 08:48:15;;;;;;;38.65;36.67;;;;;;;;;;5058898;28;20048;-66
2023/10/29 08:50:40;;;;;;;43.53;41.33;;;;;;;;;;5062224;28;20032;-66
2023/10/29 08:53:06;;;;;;;45.78;42.03;;;;;;;;;;5061328;28;20070;-67
2023/10/29 08:55:35;;;;;;;34.95;33.15;;;;;;;;;;5061265;28;20025;-65
2023/10/29 08:58:00;;;;;;;39.10;37.10;;;;;;;;;;5060853;28;20140;-65
2023/10/29 09:00:25;;;;;;;37.58;35.67;;;;;;;;;;5057508;28;20123;-67
2023/10/29 09:02:52;;;;;;;38.72;36.72;;;;;;;;;;5063126;28;20580;-65
2023/10/29 09:05:18;;;;;;;36.35;34.47;;;;;;;;;;5058625;28;20069;-67
2023/10/29 09:07:43;;;;;;;38.35;36.15;;;;;;;;;;5060316;28;20056;-67
2023/10/29 09:10:09;;;;;;;38.00;36.08;;;;;;;;;;5061861;28;20043;-67
2023/10/29 09:12:35;;;;;;;39.17;37.17;;;;;;;;;;5058120;28;20116;-65
2023/10/29 09:15:01;;;;;;;36.35;34.45;;;;;;;;;;5060721;28;20035;-67
2023/10/29 09:17:26;;;;;;;35.78;33.97;;;;;;;;;;5059388;28;20107;-67
2023/10/29 09:19:52;;;;;;;36.92;35.03;;;;;;;;;;5060575;28;20120;-67
2023/10/29 09:22:17;;;;;;;36.15;34.28;;;;;;;;;;5061464;28;20094;-67
2023/10/29 09:24:43;;;;;;;36.15;34.30;;;;;;;;;;5057407;28;20036;-67
2023/10/29 09:27:08;;;;;;;35.80;33.97;;;;;;;;;;5056908;28;20049;-63
2023/10/29 09:29:36;;;;;;;35.30;33.50;;;;;;;;;;5057525;28;20061;-66
2023/10/29 09:32:04;;;;;;;34.97;33.17;;;;;;;;;;5057452;28;20037;-67
2023/10/29 09:34:32;;;;;;;36.22;34.30;;;;;;;;;;5059868;28;20395;-66
2023/10/29 09:36:57;;;;;;;37.17;35.17;;;;;;;;;;5060260;28;20384;-66
2023/10/29 09:39:22;;;;;;;34.88;32.92;;;;;;;;;;5063033;28;20024;-67
2023/10/29 09:41:51;;;;;;;34.92;33.13;;;;;;;;;;5066023;28;20032;-66
2023/10/29 09:44:20;;;;;;;35.42;33.63;;;;;;;;;;5067316;28;20037;-66
2023/10/29 09:46:46;;;;;;;35.70;33.90;;;;;;;;;;5064472;28;20462;-66
2023/10/29 09:49:13;;;;;;;33.80;32.03;;;;;;;;;;5067615;28;20044;-67
2023/10/29 09:51:41;;;;;;;33.13;31.42;;;;;;;;;;5065669;28;20052;-67
2023/10/29 09:54:07;;;;;;;38.15;36.15;;;;;;;;;;5066922;28;20041;-68
2023/10/29 09:56:34;;;;;;;47.72;45.30;;;;;;;;;;5063825;28;20040;-68
2023/10/29 09:58:59;;;;;;;44.90;42.60;;;;;;;;;;5068285;28;20032;-69
2023/10/29 10:01:25;;;;;;;42.78;40.58;;;;;;;;;;5064635;28;20114;-63
2023/10/29 10:03:50;;;;;;;43.03;40.83;;;;;;;;;;5067540;28;20040;-62
2023/10/29 10:06:16;;;;;;;41.35;39.25;;;;;;;;;;5062924;28;20067;-63
2023/10/29 10:08:42;;;;;;;41.58;39.47;;;;;;;;;;5066592;28;20150;-62
2023/10/29 10:11:21;;;;;;;41.40;39.30;;;;;;;;;;5067782;28;20044;-62
2023/10/29 10:13:47;;;;;;;41.28;39.17;;;;;;;;;;5063779;28;20097;-62
2023/10/29 10:16:14;;;;;;;40.53;38.45;;;;;;;;;;5065229;28;20377;-63
2023/10/29 10:18:57;;;;;;;42.80;40.63;;;;;;;;;;5066039;28;20048;-64
2023/10/29 10:21:43;;;;;;;41.30;39.15;;;;;;;;;;5065830;28;20483;-63
2023/10/29 10:24:09;;;;;;;37.05;35.15;;;;;;;;;;5064463;28;20069;-62
2023/10/29 10:26:37;;;;;;;40.50;38.40;;;;;;;;;;5063987;28;20040;-62
2023/10/29 10:29:04;;;;;;;38.58;36.58;;;;;;;;;;5066463;28;20042;-61
2023/10/29 10:31:35;;;;;;;34.85;33.05;;;;;;;;;;5062393;28;20033;-61
2023/10/29 10:34:14;;;;;;;37.25;35.30;;;;;;;;;;5066262;28;20067;-61
2023/10/29 10:36:41;;;;;;;39.97;37.92;;;;;;;;;;5065420;28;20032;-63
2023/10/29 10:39:08;;;;;;;35.70;33.88;;;;;;;;;;5063146;28;20044;-62
2023/10/29 10:41:46;;;;;;;37.63;35.67;;;;;;;;;;5064706;28;20040;-62
2023/10/29 10:44:16;;;;;;;38.63;36.65;;;;;;;;;;5066159;28;20052;-62
2023/10/29 10:46:50;;;;;;;37.78;35.60;;;;;;;;;;5067590;28;20041;-62
2023/10/29 10:49:16;;;;;;;37.83;35.88;;;;;;;;;;5064567;28;20043;-61
2023/10/29 10:51:54;;;;;;;42.42;40.22;;;;;;;;;;5062590;28;20036;-62
2023/10/29 10:54:21;;;;;;;37.70;35.75;;;;;;;;;;5066432;28;20102;-64
2023/10/29 10:56:48;;;;;;;36.67;34.70;;;;;;;;;;5066836;28;20037;-65
2023/10/29 10:59:13;;;;;;;35.63;33.67;;;;;;;;;;5065474;28;20052;-62
2023/10/29 11:01:39;;;;;;;33.88;32.13;;;;;;;;;;5065375;28;20141;-62
2023/10/29 11:04:08;;;;;;;36.30;34.40;;;;;;;;;;5064248;28;20785;-62
2023/10/29 11:06:36;;;;;;;38.13;36.20;;;;;;;;;;5061468;28;20057;-67
2023/10/29 11:09:03;;;;;;;39.53;37.50;;;;;;;;;;5060746;28;20028;-66
2023/10/29 11:11:38;;;;;;;35.03;33.22;;;;;;;;;;5061435;28;20040;-65
2023/10/29 11:14:08;;;;;;;36.50;34.60;;;;;;;;;;5063196;28;20458;-65
2023/10/29 11:16:54;;;;;;;37.92;36.00;;;;;;;;;;5065440;28;20047;-62
2023/10/29 11:19:49;;;;;;;38.97;36.95;;;;;;;;;;5065011;28;20094;-62
2023/10/29 11:22:22;;;;;;;36.78;34.88;;;;;;;;;;5066283;28;20031;-62
2023/10/29 11:25:08;;;;;;;37.30;35.40;;;;;;;;;;5061893;28;20037;-66
2023/10/29 11:27:46;;;;;;;41.35;39.25;;;;;;;;;;5060988;28;20029;-65
2023/10/29 11:30:21;;;;;;;42.08;39.92;;;;;;;;;;5067322;28;20393;-66
2023/10/29 11:33:12;;;;;;;47.13;44.75;;;;;;;;;;5062149;28;20033;-67
2023/10/29 11:35:39;;;;;;;41.38;39.28;;;;;;;;;;5061245;28;20448;-63
2023/10/29 11:38:30;;;;;;;48.10;45.10;;;;;;;;;;5063370;28;20044;-67
2023/10/29 11:40:59;;;;;;;47.40;45.00;;;;;;;;;;5066857;28;20039;-67
2023/10/29 11:43:25;;;;;;;46.72;44.38;;;;;;;;;;5062192;28;20570;-68
2023/10/29 11:46:01;;;;;;;45.25;42.92;;;;;;;;;;5064601;28;20108;-67
2023/10/29 11:48:29;;;;;;;55.97;53.15;;;;;;;;;;5067347;28;20101;-63
2023/10/29 11:51:05;;;;;;;62.08;58.95;;;;;;;;;;5065664;28;20051;-63
2023/10/29 11:53:31;;;;;;;65.32;62.05;;;;;;;;;;5067008;28;20543;-68
2023/10/29 11:56:03;;;;;;;66.30;62.97;;;;;;;;;;5067087;28;20119;-68
2023/10/29 11:58:28;;;;;;;65.78;62.47;;;;;;;;;;5066952;28;20052;-67
2023/10/29 12:00:54;;;;;;;67.65;64.28;;;;;;;;;;5066484;28;20062;-67
2023/10/29 12:03:20;;;;;;;61.63;58.55;;;;;;;;;;5065804;28;20090;-65
2023/10/29 12:05:49;;;;;;;59.50;56.50;;;;;;;;;;5068001;28;20056;-67
2023/10/29 12:08:16;;;;;;;62.28;59.17;;;;;;;;;;5066124;28;20126;-66
2023/10/29 12:10:45;;;;;;;60.28;57.25;;;;;;;;;;5067581;28;20075;-65
2023/10/29 12:13:11;;;;;;;58.72;55.75;;;;;;;;;;5071675;28;20624;-65
2023/10/29 12:15:36;;;;;;;64.78;61.53;;;;;;;;;;5067450;28;20029;-64
2023/10/29 12:18:01;;;;;;;66.18;62.88;;;;;;;;;;5073370;28;20477;-67
2023/10/29 12:20:28;;;;;;;60.08;56.85;;;;;;;;;;5065904;28;20043;-64
2023/10/29 12:22:57;;;;;;;57.00;54.13;;;;;;;;;;5065365;28;20162;-65
2023/10/29 12:25:26;;;;;;;66.68;63.33;;;;;;;;;;5067477;28;20020;-64
2023/10/29 12:27:52;;;;;;;73.10;69.45;;;;;;;;;;5066172;28;20028;-68
2023/10/29 12:30:40;;;;;;;68.85;65.40;;;;;;;;;;5068656;28;20050;-67
2023/10/29 12:33:23;;;;;;;69.03;65.53;;;;;;;;;;5066587;28;20037;-67
2023/10/29 12:35:51;;;;;;;74.25;70.55;;;;;;;;;;5069175;28;20587;-67
2023/10/29 12:38:18;;;;;;;86.68;82.35;;;;;;;;;;5065154;28;20039;-66
2023/10/29 12:41:14;;;;;;;67.78;64.35;;;;;;;;;;5066357;28;20037;-66
2023/10/29 12:43:41;;;;;;;68.85;65.30;;;;;;;;;;5063293;28;20124;-67
2023/10/29 12:46:10;;;;;;;72.78;69.15;;;;;;;;;;5069399;28;20666;-66
2023/10/29 12:48:56;;;;;;;77.25;73.43;;;;;;;;;;5056811;28;20050;-65
2023/10/29 12:51:24;;;;;;;77.90;74.03;;;;;;;;;;5064788;28;20122;-65
2023/10/29 12:53:49;;;;;;;71.47;67.90;;;;;;;;;;5063481;28;20036;-67
2023/10/29 12:56:15;;;;;;;66.18;62.78;;;;;;;;;;5061836;28;20897;-66
2023/10/29 12:58:40;;;;;;;76.68;72.85;;;;;;;;;;5061767;28;20085;-65
2023/10/29 13:01:06;;;;;;;67.22;63.85;;;;;;;;;;5063225;28;20063;-66
2023/10/29 13:03:31;;;;;;;71.88;68.28;;;;;;;;;;5066832;28;20035;-65
2023/10/29 13:05:58;;;;;;;77.07;73.25;;;;;;;;;;5067705;28;20028;-66
2023/10/29 13:08:24;;;;;;;80.47;76.45;;;;;;;;;;5064443;28;20040;-66
2023/10/29 13:10:50;;;;;;;80.38;76.38;;;;;;;;;;5065137;28;20079;-67
2023/10/29 13:13:15;;;;;;;79.75;75.78;;;;;;;;;;5047641;28;20068;-62
2023/10/29 13:15:41;;;;;;;73.18;69.50;;;;;;;;;;5066488;28;20047;-63
2023/10/29 13:18:08;;;;;;;82.43;78.32;;;;;;;;;;5065819;28;20962;-63
2023/10/29 13:20:34;;;;;;;72.82;69.13;;;;;;;;;;5064929;28;20028;-63
2023/10/29 13:22:59;;;;;;;83.85;79.68;;;;;;;;;;5064102;28;20040;-65
2023/10/29 13:25:25;;;;;;;91.03;86.50;;;;;;;;;;5064142;28;20033;-64
2023/10/29 13:27:50;;;;;;;87.82;83.47;;;;;;;;;;5063740;28;20553;-65
2023/10/29 13:30:16;;;;;;;83.00;78.88;;;;;;;;;;5064270;28;20115;-63
2023/10/29 13:32:41;;;;;;;86.65;82.35;;;;;;;;;;5063316;28;20044;-63
2023/10/29 13:35:08;;;;;;;77.47;73.60;;;;;;;;;;5065660;28;20020;-65
2023/10/29 13:37:34;;;;;;;96.75;91.93;;;;;;;;;;5063540;28;20051;-63
2023/10/29 13:40:00;;;;;;;99.95;95.00;;;;;;;;;;5065224;28;20480;-64
2023/10/29 13:42:25;;;;;;;108.97;103.55;;;;;;;;;;5064500;28;20598;-62
2023/10/29 13:44:54;;;;;;;106.57;101.28;;;;;;;;;;5066450;28;20115;-64
2023/10/29 13:47:19;;;;;;;110.63;105.10;;;;;;;;;;5066572;28;20055;-61
2023/10/29 13:49:45;;;;;;;119.03;112.63;;;;;;;;;;5068362;28;20453;-61
2023/10/29 13:52:11;;;;;;;95.57;90.72;;;;;;;;;;5066526;28;20033;-61
2023/10/29 13:54:37;;;;;;;113.72;108.07;;;;;;;;;;5062291;28;20190;-62
2023/10/29 13:57:02;;;;;;;113.10;106.75;;;;;;;;;;5067193;28;21746;-62
2023/10/29 13:59:27;;;;;;;108.97;103.57;;;;;;;;;;5061385;28;20035;-61
2023/10/29 14:01:53;;;;;;;119.28;113.35;;;;;;;;;;5059594;28;20067;-61
2023/10/29 14:04:18;;;;;;;109.75;104.30;;;;;;;;;;5066211;28;20075;-62
2023/10/29 14:06:45;;;;;;;98.10;93.25;;;;;;;;;;5068320;28;20489;-64
2023/10/29 14:09:11;;;;;;;103.47;98.30;;;;;;;;;;5062727;28;20029;-65
2023/10/29 14:11:36;;;;;;;89.50;85.05;;;;;;;;;;5067596;28;20038;-64
2023/10/29 14:14:02;;;;;;;88.05;83.68;;;;;;;;;;5064017;28;20686;-62